createdAt,value
2018-05-27T00:02:01.061Z,957.63
2018-05-27T00:04:27.350Z,957.61
2018-05-27T00:06:53.636Z,957.61
2018-05-27T00:09:19.936Z,957.55
2018-05-27T00:11:46.224Z,957.56
2018-05-27T00:14:12.521Z,957.55
2018-05-27T00:16:38.813Z,957.51
2018-05-27T00:19:05.111Z,957.45
2018-05-27T00:21:31.401Z,957.47
2018-05-27T00:23:57.687Z,957.43
2018-05-27T00:26:23.980Z,957.47
2018-05-27T00:28:50.268Z,957.39
2018-05-27T00:31:16.556Z,957.39
2018-05-27T00:33:42.847Z,957.36
2018-05-27T00:36:09.131Z,957.45
2018-05-27T00:38:35.423Z,957.40
2018-05-27T00:41:01.762Z,957.42
2018-05-27T00:43:28.058Z,957.41
2018-05-27T00:45:54.349Z,957.45
2018-05-27T00:48:20.640Z,957.50
2018-05-27T00:50:46.932Z,957.57
2018-05-27T00:53:13.228Z,957.59
2018-05-27T00:55:39.522Z,957.57
2018-05-27T00:58:05.817Z,957.60
2018-05-27T01:00:32.110Z,957.61
2018-05-27T01:02:58.405Z,957.63
2018-05-27T01:05:24.700Z,957.60
2018-05-27T01:07:50.987Z,957.64
2018-05-27T01:10:17.283Z,957.64
2018-05-27T01:12:43.578Z,957.63
2018-05-27T01:15:09.903Z,957.69
2018-05-27T01:17:45.498Z,957.69
2018-05-27T01:20:11.787Z,957.69
2018-05-27T01:22:38.081Z,957.65
2018-05-27T01:25:04.367Z,957.59
2018-05-27T01:27:30.664Z,957.58
2018-05-27T01:29:56.953Z,957.62
2018-05-27T01:32:23.287Z,957.56
2018-05-27T01:34:49.615Z,957.45
2018-05-27T01:37:15.909Z,957.37
2018-05-27T01:39:42.201Z,957.46
2018-05-27T01:42:08.490Z,957.46
2018-05-27T01:44:34.779Z,957.50
2018-05-27T01:47:01.075Z,957.51
2018-05-27T01:49:27.363Z,957.46
2018-05-27T01:51:53.657Z,957.43
2018-05-27T01:54:19.951Z,957.43
2018-05-27T01:56:46.240Z,957.42
2018-05-27T01:59:12.539Z,957.48
2018-05-27T02:01:38.832Z,957.52
2018-05-27T02:04:05.121Z,957.57
2018-05-27T02:06:31.430Z,957.57
2018-05-27T02:08:57.730Z,957.53
2018-05-27T02:11:24.021Z,957.52
2018-05-27T02:13:50.316Z,957.60
2018-05-27T02:16:16.610Z,957.63
2018-05-27T02:18:42.898Z,957.71
2018-05-27T02:21:09.232Z,957.73
2018-05-27T02:23:35.522Z,957.74
2018-05-27T02:26:01.860Z,957.67
2018-05-27T02:28:28.197Z,957.72
2018-05-27T02:30:54.489Z,957.69
2018-05-27T02:33:20.820Z,957.66
2018-05-27T02:35:47.115Z,957.70
2018-05-27T02:38:13.443Z,957.66
2018-05-27T02:40:39.777Z,957.64
2018-05-27T02:43:06.071Z,957.61
2018-05-27T02:45:32.361Z,957.62
2018-05-27T02:47:58.643Z,957.68
2018-05-27T02:50:24.942Z,957.63
2018-05-27T02:52:51.234Z,957.66
2018-05-27T02:55:17.562Z,957.65
2018-05-27T02:57:43.885Z,957.62
2018-05-27T03:00:10.168Z,957.64
2018-05-27T03:02:36.457Z,957.56
2018-05-27T03:05:02.756Z,957.58
2018-05-27T03:07:29.044Z,957.57
2018-05-27T03:09:55.339Z,957.61
2018-05-27T03:12:21.643Z,957.60
2018-05-27T03:14:47.949Z,957.65
2018-05-27T03:17:14.269Z,957.57
2018-05-27T03:19:40.565Z,957.56
2018-05-27T03:22:06.869Z,957.50
2018-05-27T03:24:33.163Z,957.49
2018-05-27T03:26:59.499Z,957.50
2018-05-27T03:29:25.830Z,957.45
2018-05-27T03:31:52.117Z,957.45
2018-05-27T03:34:18.451Z,957.47
2018-05-27T03:36:44.743Z,957.42
2018-05-27T03:39:11.092Z,957.49
2018-05-27T03:41:37.387Z,957.52
2018-05-27T03:44:03.679Z,957.50
2018-05-27T03:46:29.973Z,957.50
2018-05-27T03:48:56.261Z,957.56
2018-05-27T03:51:22.560Z,957.52
2018-05-27T03:53:48.853Z,957.50
2018-05-27T03:56:15.147Z,957.45
2018-05-27T03:58:41.446Z,957.45
2018-05-27T04:01:07.744Z,957.56
2018-05-27T04:03:34.044Z,957.57
2018-05-27T04:06:00.334Z,957.66
2018-05-27T04:08:26.618Z,957.64
2018-05-27T04:10:52.906Z,957.57
2018-05-27T04:13:19.209Z,957.56
2018-05-27T04:15:45.503Z,957.58
2018-05-27T04:18:11.793Z,957.57
2018-05-27T04:20:38.087Z,957.59
2018-05-27T04:23:04.384Z,957.55
2018-05-27T04:25:30.679Z,957.50
2018-05-27T04:27:56.974Z,957.48
2018-05-27T04:30:23.259Z,957.50
2018-05-27T04:32:49.564Z,957.51
2018-05-27T04:35:15.846Z,957.56
2018-05-27T04:37:42.138Z,957.60
2018-05-27T04:40:08.434Z,957.56
2018-05-27T04:42:34.730Z,957.56
2018-05-27T04:45:01.059Z,957.60
2018-05-27T04:47:27.390Z,957.61
2018-05-27T04:49:53.725Z,957.60
2018-05-27T04:52:20.014Z,957.57
2018-05-27T04:54:46.304Z,957.53
2018-05-27T04:57:12.592Z,957.55
2018-05-27T04:59:38.933Z,957.61
2018-05-27T05:02:05.217Z,957.52
2018-05-27T05:04:31.514Z,957.57
2018-05-27T05:06:57.840Z,957.53
2018-05-27T05:09:24.186Z,957.49
2018-05-27T05:11:50.457Z,957.57
2018-05-27T05:14:16.753Z,957.54
2018-05-27T05:16:43.108Z,957.61
2018-05-27T05:19:09.408Z,957.63
2018-05-27T05:21:35.700Z,957.68
2018-05-27T05:24:01.999Z,957.60
2018-05-27T05:26:28.301Z,957.66
2018-05-27T05:28:54.593Z,957.59
2018-05-27T05:31:20.899Z,957.59
2018-05-27T05:33:47.215Z,957.61
2018-05-27T05:36:13.501Z,957.64
2018-05-27T05:38:39.818Z,957.71
2018-05-27T05:41:06.108Z,957.71
2018-05-27T05:43:32.452Z,957.74
2018-05-27T05:45:58.748Z,957.67
2018-05-27T05:48:25.048Z,957.69
2018-05-27T05:50:51.343Z,957.75
2018-05-27T05:53:17.633Z,957.71
2018-05-27T05:55:43.966Z,957.75
2018-05-27T05:58:10.261Z,957.76
2018-05-27T06:00:36.556Z,957.78
2018-05-27T06:03:02.849Z,957.85
2018-05-27T06:05:29.198Z,957.81
2018-05-27T06:07:55.483Z,957.82
2018-05-27T06:10:21.773Z,957.83
2018-05-27T06:12:48.084Z,957.81
2018-05-27T06:15:14.387Z,957.75
2018-05-27T06:17:40.671Z,957.77
2018-05-27T06:20:06.965Z,957.70
2018-05-27T06:22:33.263Z,957.61
2018-05-27T06:24:59.556Z,957.70
2018-05-27T06:27:25.851Z,957.70
2018-05-27T06:29:52.142Z,957.71
2018-05-27T06:32:18.438Z,957.74
2018-05-27T06:34:44.732Z,957.70
2018-05-27T06:37:11.027Z,957.74
2018-05-27T06:39:37.327Z,957.68
2018-05-27T06:42:03.624Z,957.72
2018-05-27T06:44:29.980Z,957.71
2018-05-27T06:46:56.269Z,957.70
2018-05-27T06:49:22.561Z,957.70
2018-05-27T06:51:48.932Z,957.69
2018-05-27T06:54:15.190Z,957.68
2018-05-27T06:56:41.491Z,957.68
2018-05-27T06:59:07.785Z,957.69
2018-05-27T07:01:34.077Z,957.69
2018-05-27T07:04:00.409Z,957.72
2018-05-27T07:06:26.740Z,957.79
2018-05-27T07:08:53.036Z,957.81
2018-05-27T07:11:19.398Z,957.79
2018-05-27T07:13:45.684Z,957.73
2018-05-27T07:16:11.983Z,957.70
2018-05-27T07:18:38.280Z,957.75
2018-05-27T07:21:04.615Z,957.84
2018-05-27T07:23:30.903Z,957.81
2018-05-27T07:25:57.237Z,957.80
2018-05-27T07:28:23.529Z,957.85
2018-05-27T07:30:49.876Z,957.81
2018-05-27T07:33:16.161Z,957.84
2018-05-27T07:35:42.457Z,957.86
2018-05-27T07:38:08.751Z,957.87
2018-05-27T07:40:35.044Z,957.92
2018-05-27T07:43:01.329Z,957.96
2018-05-27T07:45:27.665Z,957.91
2018-05-27T07:47:53.955Z,958.06
2018-05-27T07:50:20.246Z,958.04
2018-05-27T07:52:46.536Z,958.00
2018-05-27T07:55:12.825Z,958.03
2018-05-27T07:57:39.122Z,958.10
2018-05-27T08:00:05.456Z,958.10
2018-05-27T08:02:31.747Z,958.11
2018-05-27T08:04:58.049Z,958.10
2018-05-27T08:07:24.384Z,958.11
2018-05-27T08:09:50.678Z,958.14
2018-05-27T08:12:16.969Z,958.16
2018-05-27T08:14:43.276Z,958.11
2018-05-27T08:17:09.574Z,958.09
2018-05-27T08:19:35.868Z,958.05
2018-05-27T08:22:02.169Z,958.11
2018-05-27T08:24:28.451Z,958.08
2018-05-27T08:26:54.749Z,958.14
2018-05-27T08:29:21.042Z,958.12
2018-05-27T08:31:47.332Z,958.08
2018-05-27T08:34:13.650Z,958.03
2018-05-27T08:36:39.931Z,957.99
2018-05-27T08:39:06.225Z,957.99
2018-05-27T08:41:32.518Z,958.06
2018-05-27T08:43:58.813Z,957.99
2018-05-27T08:46:25.113Z,958.01
2018-05-27T08:48:51.445Z,958.05
2018-05-27T08:51:17.707Z,958.08
2018-05-27T08:53:44.001Z,958.14
2018-05-27T08:56:10.304Z,958.16
2018-05-27T08:58:36.608Z,958.13
2018-05-27T09:01:02.891Z,958.14
2018-05-27T09:03:29.188Z,958.09
2018-05-27T09:05:55.529Z,957.98
2018-05-27T09:08:21.823Z,958.02
2018-05-27T09:10:48.128Z,958.05
2018-05-27T09:13:14.423Z,958.01
2018-05-27T09:15:40.718Z,958.06
2018-05-27T09:18:07.013Z,958.09
2018-05-27T09:20:33.358Z,957.99
2018-05-27T09:22:59.657Z,957.99
2018-05-27T09:25:25.945Z,957.98
2018-05-27T09:27:52.241Z,957.98
2018-05-27T09:30:18.541Z,957.98
2018-05-27T09:32:44.838Z,957.96
2018-05-27T09:35:11.134Z,957.94
2018-05-27T09:37:37.432Z,957.98
2018-05-27T09:40:03.728Z,957.92
2018-05-27T09:42:30.019Z,957.92
2018-05-27T09:44:56.325Z,957.92
2018-05-27T09:47:22.648Z,957.86
2018-05-27T09:49:49.047Z,957.88
2018-05-27T09:52:15.355Z,957.87
2018-05-27T09:54:41.654Z,958.00
2018-05-27T09:57:07.945Z,957.94
2018-05-27T09:59:34.234Z,957.95
2018-05-27T10:02:00.523Z,957.92
2018-05-27T10:04:26.822Z,957.92
2018-05-27T10:06:53.106Z,957.85
2018-05-27T10:09:19.391Z,957.90
2018-05-27T10:11:45.690Z,957.87
2018-05-27T10:14:12.000Z,957.88
2018-05-27T10:16:38.284Z,957.85
2018-05-27T10:19:04.649Z,957.81
2018-05-27T10:21:30.869Z,957.83
2018-05-27T10:23:57.175Z,957.80
2018-05-27T10:26:23.512Z,957.74
2018-05-27T10:28:49.837Z,957.76
2018-05-27T10:31:16.124Z,957.81
2018-05-27T10:33:42.428Z,957.87
2018-05-27T10:36:08.705Z,957.82
2018-05-27T10:38:35.037Z,957.77
2018-05-27T10:41:01.368Z,957.76
2018-05-27T10:43:27.664Z,957.67
2018-05-27T10:45:53.996Z,957.71
2018-05-27T10:48:20.290Z,957.77
2018-05-27T10:50:46.587Z,957.64
2018-05-27T10:53:12.887Z,957.77
2018-05-27T10:55:39.199Z,957.72
2018-05-27T10:58:05.476Z,957.68
2018-05-27T11:00:31.809Z,957.64
2018-05-27T11:02:58.158Z,957.71
2018-05-27T11:05:24.479Z,957.67
2018-05-27T11:07:50.800Z,957.65
2018-05-27T11:10:17.089Z,957.64
2018-05-27T11:12:43.387Z,957.63
2018-05-27T11:15:09.668Z,957.65
2018-05-27T11:17:35.992Z,957.50
2018-05-27T11:20:02.282Z,957.54
2018-05-27T11:22:28.566Z,957.44
2018-05-27T11:24:54.857Z,957.51
2018-05-27T11:27:21.151Z,957.59
2018-05-27T11:29:47.451Z,957.56
2018-05-27T11:32:13.746Z,957.51
2018-05-27T11:34:40.036Z,957.47
2018-05-27T11:37:06.362Z,957.53
2018-05-27T11:39:32.622Z,957.37
2018-05-27T11:41:58.916Z,957.35
2018-05-27T11:44:25.205Z,957.39
2018-05-27T11:46:51.497Z,957.35
2018-05-27T11:49:17.788Z,957.31
2018-05-27T11:51:44.075Z,957.22
2018-05-27T11:54:10.447Z,957.24
2018-05-27T11:56:36.674Z,957.20
2018-05-27T11:59:02.976Z,957.18
2018-05-27T12:01:29.275Z,957.20
2018-05-27T12:03:55.560Z,957.16
2018-05-27T12:06:21.853Z,957.07
2018-05-27T12:08:48.180Z,957.11
2018-05-27T12:11:14.471Z,957.13
2018-05-27T12:13:40.763Z,957.10
2018-05-27T12:16:07.057Z,957.10
2018-05-27T12:18:33.357Z,957.06
2018-05-27T12:20:59.648Z,957.08
2018-05-27T12:23:25.943Z,957.04
2018-05-27T12:25:52.259Z,956.91
2018-05-27T12:28:18.573Z,956.92
2018-05-27T12:30:44.904Z,956.85
2018-05-27T12:33:11.250Z,956.79
2018-05-27T12:35:37.553Z,956.73
2018-05-27T12:38:03.843Z,956.74
2018-05-27T12:40:30.137Z,956.79
2018-05-27T12:42:56.440Z,956.77
2018-05-27T12:45:22.737Z,956.66
2018-05-27T12:47:49.033Z,956.58
2018-05-27T12:50:15.328Z,956.60
2018-05-27T12:52:41.618Z,956.45
2018-05-27T12:55:07.915Z,956.50
2018-05-27T12:57:34.233Z,956.47
2018-05-27T13:00:00.561Z,956.47
2018-05-27T13:02:26.812Z,956.35
2018-05-27T13:04:53.115Z,956.36
2018-05-27T13:07:19.406Z,956.31
2018-05-27T13:09:45.728Z,956.35
2018-05-27T13:12:12.027Z,956.30
2018-05-27T13:14:38.316Z,956.29
2018-05-27T13:17:04.609Z,956.24
2018-05-27T13:19:30.905Z,956.23
2018-05-27T13:21:57.199Z,956.21
2018-05-27T13:24:23.499Z,956.31
2018-05-27T13:26:49.786Z,956.28
2018-05-27T13:29:16.139Z,956.30
2018-05-27T13:31:42.428Z,956.35
2018-05-27T13:34:08.724Z,956.33
2018-05-27T13:36:35.064Z,956.32
2018-05-27T13:39:01.352Z,956.33
2018-05-27T13:41:27.641Z,956.38
2018-05-27T13:43:53.935Z,956.42
2018-05-27T13:46:20.231Z,956.42
2018-05-27T13:48:46.524Z,956.27
2018-05-27T13:51:12.813Z,956.27
2018-05-27T13:53:39.108Z,956.35
2018-05-27T13:56:05.395Z,956.33
2018-05-27T13:58:31.683Z,956.27
2018-05-27T14:00:58.040Z,956.35
2018-05-27T14:03:24.413Z,956.34
2018-05-27T14:05:50.625Z,956.42
2018-05-27T14:08:16.916Z,956.35
2018-05-27T14:10:43.231Z,956.34
2018-05-27T14:13:09.516Z,956.33
2018-05-27T14:15:35.851Z,956.38
2018-05-27T14:18:02.140Z,956.34
2018-05-27T14:20:28.436Z,956.31
2018-05-27T14:22:54.724Z,956.31
2018-05-27T14:25:21.008Z,956.25
2018-05-27T14:27:47.296Z,956.29
2018-05-27T14:30:13.588Z,956.29
2018-05-27T14:32:39.907Z,956.23
2018-05-27T14:35:06.203Z,956.13
2018-05-27T14:37:32.496Z,956.16
2018-05-27T14:39:58.787Z,956.17
2018-05-27T14:42:25.081Z,956.09
2018-05-27T14:44:51.394Z,956.11
2018-05-27T14:47:17.671Z,956.16
2018-05-27T14:49:43.964Z,956.22
2018-05-27T14:52:10.261Z,956.08
2018-05-27T14:54:36.559Z,956.17
2018-05-27T14:57:02.853Z,956.19
2018-05-27T14:59:29.145Z,956.22
2018-05-27T15:01:55.442Z,956.17
2018-05-27T15:04:21.748Z,956.16
2018-05-27T15:06:48.042Z,956.13
2018-05-27T15:09:14.340Z,956.15
2018-05-27T15:11:40.635Z,956.14
2018-05-27T15:14:06.967Z,956.12
2018-05-27T15:16:33.256Z,956.13
2018-05-27T15:18:59.551Z,956.14
2018-05-27T15:21:25.883Z,956.19
2018-05-27T15:23:53.557Z,956.21
2018-05-27T15:26:20.041Z,956.21
2018-05-27T15:28:46.296Z,956.28
2018-05-27T15:31:12.588Z,956.24
2018-05-27T15:33:38.875Z,956.23
2018-05-27T15:36:05.177Z,956.34
2018-05-27T15:38:31.470Z,956.35
2018-05-27T15:40:57.792Z,956.33
2018-05-27T15:43:24.084Z,956.31
2018-05-27T15:45:50.377Z,956.31
2018-05-27T15:48:16.673Z,956.28
2018-05-27T15:50:42.961Z,956.32
2018-05-27T15:53:09.246Z,956.29
2018-05-27T15:55:35.540Z,956.21
2018-05-27T15:58:01.833Z,956.30
2018-05-27T16:00:28.129Z,956.34
2018-05-27T16:02:54.415Z,956.40
2018-05-27T16:05:20.760Z,956.33
2018-05-27T16:07:47.044Z,956.36
2018-05-27T16:10:13.345Z,956.33
2018-05-27T16:12:39.630Z,956.33
2018-05-27T16:15:05.941Z,956.29
2018-05-27T16:17:32.259Z,956.29
2018-05-27T16:19:58.560Z,956.30
2018-05-27T16:22:24.885Z,956.38
2018-05-27T16:24:51.219Z,956.34
2018-05-27T16:27:17.609Z,956.38
2018-05-27T16:29:43.859Z,956.38
2018-05-27T16:32:10.151Z,956.48
2018-05-27T16:34:36.472Z,956.46
2018-05-27T16:37:02.759Z,956.50
2018-05-27T16:39:29.051Z,956.46
2018-05-27T16:41:55.341Z,956.45
2018-05-27T16:44:21.639Z,956.47
2018-05-27T16:46:47.927Z,956.52
2018-05-27T16:49:14.225Z,956.51
2018-05-27T16:51:40.553Z,956.56
2018-05-27T16:54:06.841Z,956.52
2018-05-27T16:56:33.138Z,956.56
2018-05-27T16:58:59.438Z,956.63
2018-05-27T17:01:25.781Z,956.68
2018-05-27T17:03:52.036Z,956.70
2018-05-27T17:06:18.335Z,956.71
2018-05-27T17:08:44.627Z,956.65
2018-05-27T17:11:10.917Z,956.68
2018-05-27T17:13:37.217Z,956.74
2018-05-27T17:16:03.510Z,956.80
2018-05-27T17:18:29.797Z,956.75
2018-05-27T17:20:56.125Z,956.78
2018-05-27T17:23:22.397Z,956.82
2018-05-27T17:25:48.737Z,956.85
2018-05-27T17:28:15.080Z,956.90
2018-05-27T17:30:41.333Z,956.96
2018-05-27T17:33:07.667Z,956.91
2018-05-27T17:35:33.966Z,956.99
2018-05-27T17:38:00.258Z,956.92
2018-05-27T17:40:26.550Z,956.95
2018-05-27T17:42:52.850Z,957.01
2018-05-27T17:45:19.140Z,957.04
2018-05-27T17:47:45.479Z,957.07
2018-05-27T17:50:11.768Z,957.03
2018-05-27T17:52:38.061Z,957.07
2018-05-27T17:55:06.606Z,957.06
2018-05-27T17:57:32.991Z,957.06
2018-05-27T17:59:59.235Z,957.03
2018-05-27T18:02:25.534Z,957.03
2018-05-27T18:04:51.825Z,957.11
2018-05-27T18:07:18.119Z,957.12
2018-05-27T18:09:44.411Z,957.22
2018-05-27T18:12:10.705Z,957.21
2018-05-27T18:14:36.992Z,957.27
2018-05-27T18:17:03.331Z,957.24
2018-05-27T18:19:29.621Z,957.23
2018-05-27T18:21:55.911Z,957.27
2018-05-27T18:24:22.202Z,957.25
2018-05-27T18:26:48.502Z,957.27
2018-05-27T18:29:14.781Z,957.23
2018-05-27T18:31:41.083Z,957.26
2018-05-27T18:34:07.370Z,957.25
2018-05-27T18:36:33.660Z,957.21
2018-05-27T18:39:00.002Z,957.18
2018-05-27T18:41:26.296Z,957.23
2018-05-27T18:43:52.592Z,957.29
2018-05-27T18:46:18.928Z,957.27
2018-05-27T18:48:45.225Z,957.20
2018-05-27T18:51:11.560Z,957.18
2018-05-27T18:53:37.857Z,957.17
2018-05-27T18:56:04.201Z,957.21
2018-05-27T18:58:30.497Z,957.24
2018-05-27T19:00:56.833Z,957.22
2018-05-27T19:03:23.127Z,957.15
2018-05-27T19:05:49.483Z,957.28
2018-05-27T19:08:15.751Z,957.26
2018-05-27T19:10:42.038Z,957.28
2018-05-27T19:13:08.434Z,957.33
2018-05-27T19:15:34.718Z,957.29
2018-05-27T19:18:01.012Z,957.35
2018-05-27T19:20:27.301Z,957.37
2018-05-27T19:22:53.592Z,957.36
2018-05-27T19:25:19.881Z,957.41
2018-05-27T19:27:46.170Z,957.46
2018-05-27T19:30:12.499Z,957.49
2018-05-27T19:32:38.792Z,957.53
2018-05-27T19:35:05.075Z,957.51
2018-05-27T19:37:31.379Z,957.57
2018-05-27T19:39:57.677Z,957.55
2018-05-27T19:42:24.007Z,957.52
2018-05-27T19:44:50.266Z,957.51
2018-05-27T19:47:16.608Z,957.59
2018-05-27T19:49:42.896Z,957.61
2018-05-27T19:52:09.195Z,957.61
2018-05-27T19:54:35.506Z,957.60
2018-05-27T19:57:01.797Z,957.55
2018-05-27T19:59:28.090Z,957.64
2018-05-27T20:01:54.385Z,957.59
2018-05-27T20:04:20.703Z,957.53
2018-05-27T20:06:47.007Z,957.52
2018-05-27T20:09:13.300Z,957.50
2018-05-27T20:11:39.609Z,957.54
2018-05-27T20:14:05.906Z,957.61
2018-05-27T20:16:32.191Z,957.70
2018-05-27T20:18:58.492Z,957.71
2018-05-27T20:21:24.791Z,957.76
2018-05-27T20:23:51.079Z,957.65
2018-05-27T20:26:17.617Z,957.72
2018-05-27T20:28:44.105Z,957.78
2018-05-27T20:31:10.363Z,957.78
2018-05-27T20:33:36.663Z,957.80
2018-05-27T20:36:02.951Z,957.83
2018-05-27T20:38:29.239Z,957.83
2018-05-27T20:40:55.567Z,957.80
2018-05-27T20:43:21.869Z,957.84
2018-05-27T20:45:48.161Z,957.91
2018-05-27T20:48:14.463Z,957.92
2018-05-27T20:50:40.813Z,957.83
2018-05-27T20:53:07.116Z,957.80
2018-05-27T20:55:33.439Z,957.82
2018-05-27T20:57:59.735Z,957.76
2018-05-27T21:00:26.044Z,957.85
2018-05-27T21:02:52.343Z,957.90
2018-05-27T21:05:18.632Z,957.96
2018-05-27T21:07:44.925Z,957.92
2018-05-27T21:10:11.211Z,958.01
2018-05-27T21:12:37.511Z,957.99
2018-05-27T21:15:03.815Z,958.09
2018-05-27T21:17:30.111Z,958.03
2018-05-27T21:19:56.407Z,958.05
2018-05-27T21:22:22.883Z,958.03
2018-05-27T21:24:49.232Z,958.02
2018-05-27T21:27:15.536Z,957.99
2018-05-27T21:29:41.832Z,958.00
2018-05-27T21:32:08.147Z,958.04
2018-05-27T21:34:34.439Z,957.91
2018-05-27T21:37:00.774Z,957.92
2018-05-27T21:39:27.077Z,958.02
2018-05-27T21:41:53.370Z,958.01
2018-05-27T21:44:19.667Z,958.05
2018-05-27T21:46:45.961Z,958.05
2018-05-27T21:49:12.251Z,957.99
2018-05-27T21:51:38.547Z,958.01
2018-05-27T21:54:04.843Z,957.94
2018-05-27T21:56:31.133Z,957.97
2018-05-27T21:58:57.421Z,957.89
2018-05-27T22:01:23.717Z,957.84
2018-05-27T22:03:50.006Z,957.88
2018-05-27T22:06:16.331Z,957.84
2018-05-27T22:08:42.596Z,957.82
2018-05-27T22:11:08.892Z,957.83
2018-05-27T22:13:35.183Z,957.81
2018-05-27T22:16:01.478Z,957.75
2018-05-27T22:18:27.796Z,957.71
2018-05-27T22:20:54.084Z,957.66
2018-05-27T22:23:20.376Z,957.64
2018-05-27T22:25:46.663Z,957.67
2018-05-27T22:28:12.958Z,957.63
2018-05-27T22:30:39.254Z,957.66
2018-05-27T22:33:05.564Z,957.68
2018-05-27T22:35:31.856Z,957.72
2018-05-27T22:37:58.148Z,957.78
2018-05-27T22:40:24.444Z,957.78
2018-05-27T22:42:50.771Z,957.81
2018-05-27T22:45:17.068Z,957.82
2018-05-27T22:47:43.357Z,957.87
2018-05-27T22:50:09.647Z,957.79
2018-05-27T22:52:35.936Z,957.75
2018-05-27T22:55:02.268Z,957.73
2018-05-27T22:57:28.555Z,957.74
2018-05-27T22:59:54.851Z,957.76
2018-05-27T23:02:21.145Z,957.73
2018-05-27T23:04:47.437Z,957.70
2018-05-27T23:07:13.732Z,957.66
2018-05-27T23:09:40.056Z,957.62
2018-05-27T23:12:06.313Z,957.60
2018-05-27T23:14:32.607Z,957.60
2018-05-27T23:16:58.944Z,957.61
2018-05-27T23:19:26.307Z,957.59
2018-05-27T23:21:52.602Z,957.54
2018-05-27T23:24:18.910Z,957.51
2018-05-27T23:26:45.320Z,957.57
2018-05-27T23:29:11.617Z,957.60
2018-05-27T23:31:37.912Z,957.58
2018-05-27T23:34:04.239Z,957.44
2018-05-27T23:36:30.531Z,957.41
2018-05-27T23:38:56.828Z,957.40
2018-05-27T23:41:23.125Z,957.35
2018-05-27T23:43:49.420Z,957.34
2018-05-27T23:46:15.717Z,957.31
2018-05-27T23:48:42.011Z,957.30
2018-05-27T23:51:08.305Z,957.33
2018-05-27T23:53:34.595Z,957.35
2018-05-27T23:56:00.938Z,957.35
2018-05-27T23:58:27.227Z,957.37
